sensor_id;sensor_type;location;lat;lon;timestamp;temperature;humidity
1429;DHT22;708;51.442;7.016;2023-02-28T00:01:09;2.30;1.00
1429;DHT22;708;51.442;7.016;2023-02-28T00:03:36;2.20;1.00
1429;DHT22;708;51.442;7.016;2023-02-28T00:06:03;2.20;1.00
1429;DHT22;708;51.442;7.016;2023-02-28T00:08:30;2.20;1.00
1429;DHT22;708;51.442;7.016;2023-02-28T00:11:01;2.20;1.00
1429;DHT22;708;51.442;7.016;2023-02-28T00:13:28;2.20;1.00
1429;DHT22;708;51.442;7.016;2023-02-28T00:16:04;2.20;1.00
1429;DHT22;708;51.442;7.016;2023-02-28T00:18:31;2.20;1.00
1429;DHT22;708;51.442;7.016;2023-02-28T00:20:58;2.20;99.90
1429;DHT22;708;51.442;7.016;2023-02-28T00:23:25;2.20;99.90
1429;DHT22;708;51.442;7.016;2023-02-28T00:25:52;2.20;99.90
1429;DHT22;708;51.442;7.016;2023-02-28T00:28:19;2.10;99.90
1429;DHT22;708;51.442;7.016;2023-02-28T00:30:46;2.10;99.90
1429;DHT22;708;51.442;7.016;2023-02-28T00:33:15;2.10;99.90
1429;DHT22;708;51.442;7.016;2023-02-28T00:35:42;2.10;99.90
1429;DHT22;708;51.442;7.016;2023-02-28T00:38:11;2.10;99.90
1429;DHT22;708;51.442;7.016;2023-02-28T00:40:38;2.10;99.90
1429;DHT22;708;51.442;7.016;2023-02-28T00:43:05;2.10;99.90
1429;DHT22;708;51.442;7.016;2023-02-28T00:45:31;2.00;99.90
1429;DHT22;708;51.442;7.016;2023-02-28T00:47:58;2.00;99.90
1429;DHT22;708;51.442;7.016;2023-02-28T00:50:26;2.00;1.00
1429;DHT22;708;51.442;7.016;2023-02-28T00:52:53;2.00;1.00
1429;DHT22;708;51.442;7.016;2023-02-28T00:55:20;2.00;1.00
1429;DHT22;708;51.442;7.016;2023-02-28T00:57:46;2.00;1.00
1429;DHT22;708;51.442;7.016;2023-02-28T01:00:14;1.90;1.00
1429;DHT22;708;51.442;7.016;2023-02-28T01:02:41;1.90;1.00
1429;DHT22;708;51.442;7.016;2023-02-28T01:05:08;1.80;1.00
1429;DHT22;708;51.442;7.016;2023-02-28T01:07:36;1.80;1.00
1429;DHT22;708;51.442;7.016;2023-02-28T01:10:04;1.80;1.00
1429;DHT22;708;51.442;7.016;2023-02-28T01:12:31;1.80;1.00
1429;DHT22;708;51.442;7.016;2023-02-28T01:14:57;1.70;1.00
1429;DHT22;708;51.442;7.016;2023-02-28T01:17:24;1.70;1.00
1429;DHT22;708;51.442;7.016;2023-02-28T01:19:53;1.70;1.00
1429;DHT22;708;51.442;7.016;2023-02-28T01:22:20;1.70;1.00
1429;DHT22;708;51.442;7.016;2023-02-28T01:24:48;1.60;1.00
1429;DHT22;708;51.442;7.016;2023-02-28T01:27:14;1.60;1.00
1429;DHT22;708;51.442;7.016;2023-02-28T01:29:41;1.60;1.00
1429;DHT22;708;51.442;7.016;2023-02-28T01:32:08;1.60;1.00
1429;DHT22;708;51.442;7.016;2023-02-28T01:34:34;1.50;1.00
1429;DHT22;708;51.442;7.016;2023-02-28T01:37:01;1.50;1.00
1429;DHT22;708;51.442;7.016;2023-02-28T01:39:29;1.50;1.00
1429;DHT22;708;51.442;7.016;2023-02-28T01:41:57;1.40;1.00
1429;DHT22;708;51.442;7.016;2023-02-28T01:44:58;1.40;1.00
1429;DHT22;708;51.442;7.016;2023-02-28T01:47:28;1.40;1.00
1429;DHT22;708;51.442;7.016;2023-02-28T01:49:55;1.30;8.50
1429;DHT22;708;51.442;7.016;2023-02-28T01:52:22;1.30;63.60
1429;DHT22;708;51.442;7.016;2023-02-28T01:54:52;1.30;81.90
1429;DHT22;708;51.442;7.016;2023-02-28T01:57:25;1.20;99.90
1429;DHT22;708;51.442;7.016;2023-02-28T01:59:56;1.20;99.90
1429;DHT22;708;51.442;7.016;2023-02-28T02:02:26;1.20;99.90
1429;DHT22;708;51.442;7.016;2023-02-28T02:04:56;1.10;99.90
1429;DHT22;708;51.442;7.016;2023-02-28T02:07:25;1.10;99.90
1429;DHT22;708;51.442;7.016;2023-02-28T02:10:00;1.10;99.90
1429;DHT22;708;51.442;7.016;2023-02-28T02:12:43;1.00;99.90
1429;DHT22;708;51.442;7.016;2023-02-28T02:15:16;1.10;99.90
1429;DHT22;708;51.442;7.016;2023-02-28T02:17:47;1.10;99.90
1429;DHT22;708;51.442;7.016;2023-02-28T02:20:41;1.00;99.90
1429;DHT22;708;51.442;7.016;2023-02-28T02:23:31;1.00;99.90
1429;DHT22;708;51.442;7.016;2023-02-28T02:26:06;1.00;99.90
1429;DHT22;708;51.442;7.016;2023-02-28T02:29:00;0.90;1.00
1429;DHT22;708;51.442;7.016;2023-02-28T02:31:48;0.90;1.00
1429;DHT22;708;51.442;7.016;2023-02-28T02:34:43;0.90;1.00
1429;DHT22;708;51.442;7.016;2023-02-28T02:37:16;0.90;1.00
1429;DHT22;708;51.442;7.016;2023-02-28T02:39:50;0.90;1.00
1429;DHT22;708;51.442;7.016;2023-02-28T02:42:24;0.90;1.00
1429;DHT22;708;51.442;7.016;2023-02-28T02:44:58;0.90;1.00
1429;DHT22;708;51.442;7.016;2023-02-28T02:47:29;0.90;1.00
1429;DHT22;708;51.442;7.016;2023-02-28T02:50:02;0.90;1.00
1429;DHT22;708;51.442;7.016;2023-02-28T02:52:36;0.90;1.00
1429;DHT22;708;51.442;7.016;2023-02-28T02:55:06;0.80;1.00
1429;DHT22;708;51.442;7.016;2023-02-28T02:57:40;0.80;1.00
1429;DHT22;708;51.442;7.016;2023-02-28T03:00:11;0.90;1.00
1429;DHT22;708;51.442;7.016;2023-02-28T03:02:39;0.80;99.90
1429;DHT22;708;51.442;7.016;2023-02-28T03:05:13;0.80;99.90
1429;DHT22;708;51.442;7.016;2023-02-28T03:07:41;0.90;99.90
1429;DHT22;708;51.442;7.016;2023-02-28T03:10:26;0.80;99.90
1429;DHT22;708;51.442;7.016;2023-02-28T03:13:00;0.80;99.90
1429;DHT22;708;51.442;7.016;2023-02-28T03:15:34;0.80;99.90
1429;DHT22;708;51.442;7.016;2023-02-28T03:18:13;0.80;99.90
1429;DHT22;708;51.442;7.016;2023-02-28T03:20:48;0.80;99.90
1429;DHT22;708;51.442;7.016;2023-02-28T03:23:20;0.80;99.90
1429;DHT22;708;51.442;7.016;2023-02-28T03:25:56;0.80;99.90
1429;DHT22;708;51.442;7.016;2023-02-28T03:28:30;0.80;99.90
1429;DHT22;708;51.442;7.016;2023-02-28T03:31:00;0.80;99.90
1429;DHT22;708;51.442;7.016;2023-02-28T03:33:34;0.80;99.90
1429;DHT22;708;51.442;7.016;2023-02-28T03:36:06;0.80;99.90
1429;DHT22;708;51.442;7.016;2023-02-28T03:38:38;0.70;97.50
1429;DHT22;708;51.442;7.016;2023-02-28T03:41:10;0.70;98.80
1429;DHT22;708;51.442;7.016;2023-02-28T03:43:43;0.70;77.10
1429;DHT22;708;51.442;7.016;2023-02-28T03:46:15;0.70;75.70
1429;DHT22;708;51.442;7.016;2023-02-28T03:48:49;0.60;43.60
1429;DHT22;708;51.442;7.016;2023-02-28T03:51:21;0.70;46.80
1429;DHT22;708;51.442;7.016;2023-02-28T03:53:51;0.60;2.80
1429;DHT22;708;51.442;7.016;2023-02-28T03:56:20;0.60;1.80
1429;DHT22;708;51.442;7.016;2023-02-28T03:58:53;0.60;1.00
1429;DHT22;708;51.442;7.016;2023-02-28T04:01:23;0.60;1.00
1429;DHT22;708;51.442;7.016;2023-02-28T04:03:51;0.60;1.00
1429;DHT22;708;51.442;7.016;2023-02-28T04:06:21;0.60;1.00
1429;DHT22;708;51.442;7.016;2023-02-28T04:08:49;0.60;1.00
1429;DHT22;708;51.442;7.016;2023-02-28T04:11:22;0.60;1.00
1429;DHT22;708;51.442;7.016;2023-02-28T04:13:50;0.60;1.00
1429;DHT22;708;51.442;7.016;2023-02-28T04:16:17;0.60;1.00
1429;DHT22;708;51.442;7.016;2023-02-28T04:18:44;0.60;1.00
1429;DHT22;708;51.442;7.016;2023-02-28T04:21:11;0.60;1.00
1429;DHT22;708;51.442;7.016;2023-02-28T04:23:39;0.60;1.00
1429;DHT22;708;51.442;7.016;2023-02-28T04:26:06;0.60;1.00
1429;DHT22;708;51.442;7.016;2023-02-28T04:28:33;0.50;1.00
1429;DHT22;708;51.442;7.016;2023-02-28T04:31:02;0.50;1.00
1429;DHT22;708;51.442;7.016;2023-02-28T04:33:31;0.50;1.00
1429;DHT22;708;51.442;7.016;2023-02-28T04:35:59;0.40;1.00
1429;DHT22;708;51.442;7.016;2023-02-28T04:38:29;0.40;1.00
1429;DHT22;708;51.442;7.016;2023-02-28T04:41:00;0.40;1.00
1429;DHT22;708;51.442;7.016;2023-02-28T04:43:28;0.40;1.00
1429;DHT22;708;51.442;7.016;2023-02-28T04:45:56;0.40;1.00
1429;DHT22;708;51.442;7.016;2023-02-28T04:48:23;0.40;1.00
1429;DHT22;708;51.442;7.016;2023-02-28T04:50:50;0.40;1.00
1429;DHT22;708;51.442;7.016;2023-02-28T04:53:17;0.30;1.00
1429;DHT22;708;51.442;7.016;2023-02-28T04:55:44;0.30;1.00
1429;DHT22;708;51.442;7.016;2023-02-28T04:58:13;0.30;1.00
1429;DHT22;708;51.442;7.016;2023-02-28T05:00:40;0.30;1.00
1429;DHT22;708;51.442;7.016;2023-02-28T05:03:07;0.30;1.00
1429;DHT22;708;51.442;7.016;2023-02-28T05:05:35;0.30;1.00
1429;DHT22;708;51.442;7.016;2023-02-28T05:08:01;0.20;1.00
1429;DHT22;708;51.442;7.016;2023-02-28T05:10:28;0.20;1.00
1429;DHT22;708;51.442;7.016;2023-02-28T05:12:55;0.20;1.00
1429;DHT22;708;51.442;7.016;2023-02-28T05:15:24;0.20;1.00
1429;DHT22;708;51.442;7.016;2023-02-28T05:17:50;0.20;1.00
1429;DHT22;708;51.442;7.016;2023-02-28T05:20:17;0.20;1.00
1429;DHT22;708;51.442;7.016;2023-02-28T05:22:44;0.20;1.00
1429;DHT22;708;51.442;7.016;2023-02-28T05:25:13;0.20;1.00
1429;DHT22;708;51.442;7.016;2023-02-28T05:27:40;0.20;1.00
1429;DHT22;708;51.442;7.016;2023-02-28T05:30:08;0.20;1.00
1429;DHT22;708;51.442;7.016;2023-02-28T05:32:37;0.20;1.00
1429;DHT22;708;51.442;7.016;2023-02-28T05:35:04;0.10;1.00
1429;DHT22;708;51.442;7.016;2023-02-28T05:37:31;0.10;1.00
1429;DHT22;708;51.442;7.016;2023-02-28T05:39:58;0.10;1.00
1429;DHT22;708;51.442;7.016;2023-02-28T05:42:25;0.10;2.20
1429;DHT22;708;51.442;7.016;2023-02-28T05:44:51;0.10;1.00
1429;DHT22;708;51.442;7.016;2023-02-28T05:47:18;0.10;1.00
1429;DHT22;708;51.442;7.016;2023-02-28T05:49:46;0.10;1.00
1429;DHT22;708;51.442;7.016;2023-02-28T05:52:13;0.00;1.00
1429;DHT22;708;51.442;7.016;2023-02-28T05:54:40;0.00;9.00
1429;DHT22;708;51.442;7.016;2023-02-28T05:57:07;0.00;24.10
1429;DHT22;708;51.442;7.016;2023-02-28T05:59:34;0.00;27.70
1429;DHT22;708;51.442;7.016;2023-02-28T06:02:05;0.00;21.50
1429;DHT22;708;51.442;7.016;2023-02-28T06:04:32;0.00;18.20
1429;DHT22;708;51.442;7.016;2023-02-28T06:07:00;0.00;1.00
1429;DHT22;708;51.442;7.016;2023-02-28T06:09:28;0.00;4.30
1429;DHT22;708;51.442;7.016;2023-02-28T06:11:57;0.00;1.00
1429;DHT22;708;51.442;7.016;2023-02-28T06:14:24;-0.10;4.00
1429;DHT22;708;51.442;7.016;2023-02-28T06:16:51;-0.10;1.00
1429;DHT22;708;51.442;7.016;2023-02-28T06:19:18;-0.10;11.40
1429;DHT22;708;51.442;7.016;2023-02-28T06:21:45;0.00;1.20
1429;DHT22;708;51.442;7.016;2023-02-28T06:24:16;0.00;1.00
1429;DHT22;708;51.442;7.016;2023-02-28T06:26:43;0.00;1.00
1429;DHT22;708;51.442;7.016;2023-02-28T06:29:10;-0.10;1.00
1429;DHT22;708;51.442;7.016;2023-02-28T06:31:37;-0.10;1.00
1429;DHT22;708;51.442;7.016;2023-02-28T06:34:04;0.00;1.00
1429;DHT22;708;51.442;7.016;2023-02-28T06:36:31;0.00;1.00
1429;DHT22;708;51.442;7.016;2023-02-28T06:38:58;0.00;1.00
1429;DHT22;708;51.442;7.016;2023-02-28T06:41:26;0.00;1.00
1429;DHT22;708;51.442;7.016;2023-02-28T06:43:53;0.10;1.00
1429;DHT22;708;51.442;7.016;2023-02-28T06:46:20;0.10;1.00
1429;DHT22;708;51.442;7.016;2023-02-28T06:48:47;0.20;1.00
1429;DHT22;708;51.442;7.016;2023-02-28T06:51:16;0.20;1.00
1429;DHT22;708;51.442;7.016;2023-02-28T06:53:43;0.30;1.00
1429;DHT22;708;51.442;7.016;2023-02-28T06:56:12;0.30;1.00
1429;DHT22;708;51.442;7.016;2023-02-28T06:58:40;0.40;1.00
1429;DHT22;708;51.442;7.016;2023-02-28T07:01:08;0.40;1.00
1429;DHT22;708;51.442;7.016;2023-02-28T07:03:35;0.60;1.00
1429;DHT22;708;51.442;7.016;2023-02-28T07:06:02;1.00;1.00
1429;DHT22;708;51.442;7.016;2023-02-28T07:08:29;1.80;1.00
1429;DHT22;708;51.442;7.016;2023-02-28T07:10:56;3.10;99.90
1429;DHT22;708;51.442;7.016;2023-02-28T07:13:24;4.40;99.90
1429;DHT22;708;51.442;7.016;2023-02-28T07:15:57;5.40;99.90
1429;DHT22;708;51.442;7.016;2023-02-28T07:18:24;6.40;99.90
1429;DHT22;708;51.442;7.016;2023-02-28T07:20:52;7.20;99.90
1429;DHT22;708;51.442;7.016;2023-02-28T07:23:19;8.00;99.90
1429;DHT22;708;51.442;7.016;2023-02-28T07:25:45;8.80;99.90
1429;DHT22;708;51.442;7.016;2023-02-28T07:28:13;9.40;99.90
1429;DHT22;708;51.442;7.016;2023-02-28T07:30:40;10.10;99.90
1429;DHT22;708;51.442;7.016;2023-02-28T07:33:08;10.80;99.90
1429;DHT22;708;51.442;7.016;2023-02-28T07:35:35;11.20;99.90
1429;DHT22;708;51.442;7.016;2023-02-28T07:38:02;11.40;99.90
1429;DHT22;708;51.442;7.016;2023-02-28T07:40:29;11.70;99.90
1429;DHT22;708;51.442;7.016;2023-02-28T07:42:56;12.30;99.90
1429;DHT22;708;51.442;7.016;2023-02-28T07:45:25;12.70;99.90
1429;DHT22;708;51.442;7.016;2023-02-28T07:47:51;13.10;99.50
1429;DHT22;708;51.442;7.016;2023-02-28T07:50:20;13.50;98.90
1429;DHT22;708;51.442;7.016;2023-02-28T07:52:47;13.70;97.40
1429;DHT22;708;51.442;7.016;2023-02-28T07:55:13;13.60;97.00
1429;DHT22;708;51.442;7.016;2023-02-28T07:57:42;14.10;96.60
1429;DHT22;708;51.442;7.016;2023-02-28T08:00:10;14.60;96.00
1429;DHT22;708;51.442;7.016;2023-02-28T08:02:38;14.90;95.60
1429;DHT22;708;51.442;7.016;2023-02-28T08:05:06;14.80;94.70
1429;DHT22;708;51.442;7.016;2023-02-28T08:07:34;14.10;94.50
1429;DHT22;708;51.442;7.016;2023-02-28T08:10:01;13.00;93.00
1429;DHT22;708;51.442;7.016;2023-02-28T08:12:30;12.10;92.90
1429;DHT22;708;51.442;7.016;2023-02-28T08:14:58;11.60;92.60
1429;DHT22;708;51.442;7.016;2023-02-28T08:17:24;10.80;92.70
1429;DHT22;708;51.442;7.016;2023-02-28T08:19:51;10.30;92.60
1429;DHT22;708;51.442;7.016;2023-02-28T08:22:18;10.60;92.60
1429;DHT22;708;51.442;7.016;2023-02-28T08:24:46;10.90;92.40
1429;DHT22;708;51.442;7.016;2023-02-28T08:27:13;10.50;92.10
1429;DHT22;708;51.442;7.016;2023-02-28T08:29:40;9.60;92.20
1429;DHT22;708;51.442;7.016;2023-02-28T08:32:07;9.20;92.70
1429;DHT22;708;51.442;7.016;2023-02-28T08:34:33;9.20;92.70
1429;DHT22;708;51.442;7.016;2023-02-28T08:37:00;9.50;93.20
1429;DHT22;708;51.442;7.016;2023-02-28T08:39:27;10.10;92.50
1429;DHT22;708;51.442;7.016;2023-02-28T08:41:55;10.00;91.70
1429;DHT22;708;51.442;7.016;2023-02-28T08:44:22;10.10;91.70
1429;DHT22;708;51.442;7.016;2023-02-28T08:46:49;11.00;91.90
1429;DHT22;708;51.442;7.016;2023-02-28T08:49:15;11.70;91.20
1429;DHT22;708;51.442;7.016;2023-02-28T08:51:42;11.70;91.40
1429;DHT22;708;51.442;7.016;2023-02-28T08:54:09;12.00;90.90
1429;DHT22;708;51.442;7.016;2023-02-28T08:56:37;12.50;91.00
1429;DHT22;708;51.442;7.016;2023-02-28T08:59:06;13.20;91.20
1429;DHT22;708;51.442;7.016;2023-02-28T09:01:33;14.00;90.60
1429;DHT22;708;51.442;7.016;2023-02-28T09:03:59;14.90;91.10
1429;DHT22;708;51.442;7.016;2023-02-28T09:06:28;16.00;91.00
1429;DHT22;708;51.442;7.016;2023-02-28T09:08:56;16.40;89.70
1429;DHT22;708;51.442;7.016;2023-02-28T09:11:24;16.50;87.50
1429;DHT22;708;51.442;7.016;2023-02-28T09:13:51;16.80;88.70
1429;DHT22;708;51.442;7.016;2023-02-28T09:16:19;17.00;88.20
1429;DHT22;708;51.442;7.016;2023-02-28T09:18:46;17.40;87.40
1429;DHT22;708;51.442;7.016;2023-02-28T09:21:15;17.60;86.00
1429;DHT22;708;51.442;7.016;2023-02-28T09:23:44;17.70;86.10
1429;DHT22;708;51.442;7.016;2023-02-28T09:26:14;17.60;84.50
1429;DHT22;708;51.442;7.016;2023-02-28T09:28:41;17.10;83.90
1429;DHT22;708;51.442;7.016;2023-02-28T09:31:12;16.80;84.30
1429;DHT22;708;51.442;7.016;2023-02-28T09:33:40;16.70;82.20
1429;DHT22;708;51.442;7.016;2023-02-28T09:36:07;15.90;81.20
1429;DHT22;708;51.442;7.016;2023-02-28T09:38:34;15.00;79.40
1429;DHT22;708;51.442;7.016;2023-02-28T09:41:04;14.80;79.80
1429;DHT22;708;51.442;7.016;2023-02-28T09:43:39;14.10;78.20
1429;DHT22;708;51.442;7.016;2023-02-28T09:46:12;13.50;78.00
1429;DHT22;708;51.442;7.016;2023-02-28T09:48:45;12.70;79.50
1429;DHT22;708;51.442;7.016;2023-02-28T09:51:27;11.80;77.10
1429;DHT22;708;51.442;7.016;2023-02-28T09:53:55;11.40;90.40
1429;DHT22;708;51.442;7.016;2023-02-28T09:56:25;10.60;77.20
1429;DHT22;708;51.442;7.016;2023-02-28T09:58:56;10.00;77.10
1429;DHT22;708;51.442;7.016;2023-02-28T10:01:28;9.70;78.00
1429;DHT22;708;51.442;7.016;2023-02-28T10:04:02;9.80;77.80
1429;DHT22;708;51.442;7.016;2023-02-28T10:06:34;9.90;78.10
1429;DHT22;708;51.442;7.016;2023-02-28T10:09:05;10.40;76.40
1429;DHT22;708;51.442;7.016;2023-02-28T10:11:36;10.50;76.10
1429;DHT22;708;51.442;7.016;2023-02-28T10:14:07;9.40;77.40
1429;DHT22;708;51.442;7.016;2023-02-28T10:16:40;8.70;76.70
1429;DHT22;708;51.442;7.016;2023-02-28T10:19:16;8.00;77.30
1429;DHT22;708;51.442;7.016;2023-02-28T10:21:49;6.90;76.80
1429;DHT22;708;51.442;7.016;2023-02-28T10:24:21;6.40;77.50
1429;DHT22;708;51.442;7.016;2023-02-28T10:26:52;6.30;77.40
1429;DHT22;708;51.442;7.016;2023-02-28T10:29:20;6.20;77.30
1429;DHT22;708;51.442;7.016;2023-02-28T10:31:47;5.90;77.90
1429;DHT22;708;51.442;7.016;2023-02-28T10:34:15;5.70;77.90
1429;DHT22;708;51.442;7.016;2023-02-28T10:36:42;5.60;79.40
1429;DHT22;708;51.442;7.016;2023-02-28T10:39:38;5.60;78.90
1429;DHT22;708;51.442;7.016;2023-02-28T10:42:09;5.70;80.00
1429;DHT22;708;51.442;7.016;2023-02-28T10:44:44;5.80;79.70
1429;DHT22;708;51.442;7.016;2023-02-28T10:47:14;6.00;80.40
1429;DHT22;708;51.442;7.016;2023-02-28T10:49:48;5.90;80.20
1429;DHT22;708;51.442;7.016;2023-02-28T10:52:33;6.10;81.00
1429;DHT22;708;51.442;7.016;2023-02-28T10:55:15;6.10;80.90
1429;DHT22;708;51.442;7.016;2023-02-28T10:57:42;5.90;81.00
1429;DHT22;708;51.442;7.016;2023-02-28T11:00:15;5.90;79.80
1429;DHT22;708;51.442;7.016;2023-02-28T11:02:42;6.00;80.70
1429;DHT22;708;51.442;7.016;2023-02-28T11:05:29;5.90;80.10
1429;DHT22;708;51.442;7.016;2023-02-28T11:07:59;5.80;79.00
1429;DHT22;708;51.442;7.016;2023-02-28T11:10:31;5.60;81.00
1429;DHT22;708;51.442;7.016;2023-02-28T11:13:00;5.20;79.90
1429;DHT22;708;51.442;7.016;2023-02-28T11:15:29;5.00;79.60
1429;DHT22;708;51.442;7.016;2023-02-28T11:17:58;5.00;80.20
1429;DHT22;708;51.442;7.016;2023-02-28T11:20:30;5.10;80.40
1429;DHT22;708;51.442;7.016;2023-02-28T11:22:58;5.10;80.70
1429;DHT22;708;51.442;7.016;2023-02-28T11:25:30;5.20;81.20
1429;DHT22;708;51.442;7.016;2023-02-28T11:27:59;5.10;80.50
1429;DHT22;708;51.442;7.016;2023-02-28T11:30:33;5.20;81.50
1429;DHT22;708;51.442;7.016;2023-02-28T11:33:01;5.10;81.90
1429;DHT22;708;51.442;7.016;2023-02-28T11:35:33;5.30;80.80
1429;DHT22;708;51.442;7.016;2023-02-28T11:38:01;5.40;80.10
1429;DHT22;708;51.442;7.016;2023-02-28T11:40:35;5.40;80.90
1429;DHT22;708;51.442;7.016;2023-02-28T11:43:13;5.60;80.00
1429;DHT22;708;51.442;7.016;2023-02-28T11:45:58;5.40;80.80
1429;DHT22;708;51.442;7.016;2023-02-28T11:48:32;5.20;80.70
1429;DHT22;708;51.442;7.016;2023-02-28T11:51:12;5.00;80.50
1429;DHT22;708;51.442;7.016;2023-02-28T11:54:08;4.80;80.90
1429;DHT22;708;51.442;7.016;2023-02-28T11:56:41;4.80;92.00
1429;DHT22;708;51.442;7.016;2023-02-28T11:59:26;4.80;81.10
1429;DHT22;708;51.442;7.016;2023-02-28T12:02:08;4.70;81.80
1429;DHT22;708;51.442;7.016;2023-02-28T12:04:49;4.90;81.90
1429;DHT22;708;51.442;7.016;2023-02-28T12:07:29;5.00;81.90
1429;DHT22;708;51.442;7.016;2023-02-28T12:10:05;5.10;82.60
1429;DHT22;708;51.442;7.016;2023-02-28T12:12:42;5.20;81.90
1429;DHT22;708;51.442;7.016;2023-02-28T12:15:36;5.30;81.90
1429;DHT22;708;51.442;7.016;2023-02-28T12:18:16;5.30;82.80
1429;DHT22;708;51.442;7.016;2023-02-28T12:20:51;5.30;82.70
1429;DHT22;708;51.442;7.016;2023-02-28T12:23:33;5.30;83.00
1429;DHT22;708;51.442;7.016;2023-02-28T12:26:09;5.40;83.20
1429;DHT22;708;51.442;7.016;2023-02-28T12:28:41;5.50;83.00
1429;DHT22;708;51.442;7.016;2023-02-28T12:31:11;5.50;83.70
1429;DHT22;708;51.442;7.016;2023-02-28T12:33:45;5.60;83.40
1429;DHT22;708;51.442;7.016;2023-02-28T12:36:15;5.80;83.40
1429;DHT22;708;51.442;7.016;2023-02-28T12:38:48;5.90;81.60
1429;DHT22;708;51.442;7.016;2023-02-28T12:41:18;5.90;82.10
1429;DHT22;708;51.442;7.016;2023-02-28T12:43:50;5.80;81.60
1429;DHT22;708;51.442;7.016;2023-02-28T12:46:22;5.70;82.00
1429;DHT22;708;51.442;7.016;2023-02-28T12:48:53;5.70;82.10
1429;DHT22;708;51.442;7.016;2023-02-28T12:51:23;5.70;81.40
1429;DHT22;708;51.442;7.016;2023-02-28T12:54:00;5.60;83.40
1429;DHT22;708;51.442;7.016;2023-02-28T12:56:39;5.30;82.30
1429;DHT22;708;51.442;7.016;2023-02-28T12:59:14;5.40;83.80
1429;DHT22;708;51.442;7.016;2023-02-28T13:01:59;5.50;83.20
1429;DHT22;708;51.442;7.016;2023-02-28T13:04:41;5.60;84.30
1429;DHT22;708;51.442;7.016;2023-02-28T13:07:32;5.80;93.50
1429;DHT22;708;51.442;7.016;2023-02-28T13:10:05;6.00;83.50
1429;DHT22;708;51.442;7.016;2023-02-28T13:12:33;6.00;82.40
1429;DHT22;708;51.442;7.016;2023-02-28T13:15:05;6.10;83.00
1429;DHT22;708;51.442;7.016;2023-02-28T13:17:38;6.30;83.50
1429;DHT22;708;51.442;7.016;2023-02-28T13:20:15;6.30;82.90
1429;DHT22;708;51.442;7.016;2023-02-28T13:22:44;6.40;83.00
1429;DHT22;708;51.442;7.016;2023-02-28T13:31:31;6.20;83.00
1429;DHT22;708;51.442;7.016;2023-02-28T13:34:15;6.30;83.20
1429;DHT22;708;51.442;7.016;2023-02-28T13:36:42;6.40;82.90
1429;DHT22;708;51.442;7.016;2023-02-28T13:39:47;6.50;84.20
1429;DHT22;708;51.442;7.016;2023-02-28T13:42:32;6.40;83.50
1429;DHT22;708;51.442;7.016;2023-02-28T13:45:23;6.40;83.40
1429;DHT22;708;51.442;7.016;2023-02-28T13:48:00;6.40;83.20
1429;DHT22;708;51.442;7.016;2023-02-28T13:50:32;6.50;84.20
1429;DHT22;708;51.442;7.016;2023-02-28T13:56:04;6.30;83.90
1429;DHT22;708;51.442;7.016;2023-02-28T13:58:46;6.10;85.40
1429;DHT22;708;51.442;7.016;2023-02-28T14:01:32;6.20;85.00
1429;DHT22;708;51.442;7.016;2023-02-28T14:04:23;6.30;85.20
1429;DHT22;708;51.442;7.016;2023-02-28T14:06:55;6.30;85.50
1429;DHT22;708;51.442;7.016;2023-02-28T14:09:25;6.30;85.50
1429;DHT22;708;51.442;7.016;2023-02-28T14:11:54;6.30;86.20
1429;DHT22;708;51.442;7.016;2023-02-28T14:14:55;6.30;86.50
1429;DHT22;708;51.442;7.016;2023-02-28T14:17:25;6.30;86.80
1429;DHT22;708;51.442;7.016;2023-02-28T14:19:54;6.40;86.70
1429;DHT22;708;51.442;7.016;2023-02-28T14:22:45;6.40;87.10
1429;DHT22;708;51.442;7.016;2023-02-28T14:25:33;6.40;87.70
1429;DHT22;708;51.442;7.016;2023-02-28T14:28:13;6.30;87.00
1429;DHT22;708;51.442;7.016;2023-02-28T14:30:56;6.30;88.00
1429;DHT22;708;51.442;7.016;2023-02-28T14:33:27;6.30;87.70
1429;DHT22;708;51.442;7.016;2023-02-28T14:36:10;6.20;88.10
1429;DHT22;708;51.442;7.016;2023-02-28T14:38:42;6.10;87.20
1429;DHT22;708;51.442;7.016;2023-02-28T14:41:21;6.10;89.80
1429;DHT22;708;51.442;7.016;2023-02-28T14:43:51;6.10;88.50
1429;DHT22;708;51.442;7.016;2023-02-28T14:46:18;6.20;88.10
1429;DHT22;708;51.442;7.016;2023-02-28T14:48:49;6.30;88.40
1429;DHT22;708;51.442;7.016;2023-02-28T14:51:22;6.20;89.30
1429;DHT22;708;51.442;7.016;2023-02-28T14:53:52;6.10;88.40
1429;DHT22;708;51.442;7.016;2023-02-28T14:56:24;6.00;89.30
1429;DHT22;708;51.442;7.016;2023-02-28T14:58:54;6.10;89.50
1429;DHT22;708;51.442;7.016;2023-02-28T15:01:22;5.90;89.70
1429;DHT22;708;51.442;7.016;2023-02-28T15:03:58;5.90;90.00
1429;DHT22;708;51.442;7.016;2023-02-28T15:06:28;5.90;90.30
1429;DHT22;708;51.442;7.016;2023-02-28T15:09:09;5.90;90.40
1429;DHT22;708;51.442;7.016;2023-02-28T15:11:38;6.00;90.40
1429;DHT22;708;51.442;7.016;2023-02-28T15:14:05;6.00;90.60
1429;DHT22;708;51.442;7.016;2023-02-28T15:16:34;6.00;90.50
1429;DHT22;708;51.442;7.016;2023-02-28T15:19:05;6.10;90.40
1429;DHT22;708;51.442;7.016;2023-02-28T15:21:36;6.10;90.40
1429;DHT22;708;51.442;7.016;2023-02-28T15:24:05;5.90;90.60
1429;DHT22;708;51.442;7.016;2023-02-28T15:26:35;5.90;90.10
1429;DHT22;708;51.442;7.016;2023-02-28T15:29:06;5.90;90.20
1429;DHT22;708;51.442;7.016;2023-02-28T15:31:35;5.80;90.50
1429;DHT22;708;51.442;7.016;2023-02-28T15:34:05;5.80;90.60
1429;DHT22;708;51.442;7.016;2023-02-28T15:36:34;5.80;90.60
1429;DHT22;708;51.442;7.016;2023-02-28T15:39:16;5.80;90.60
1429;DHT22;708;51.442;7.016;2023-02-28T15:41:44;5.80;90.60
1429;DHT22;708;51.442;7.016;2023-02-28T15:44:25;5.80;91.20
1429;DHT22;708;51.442;7.016;2023-02-28T15:46:58;5.80;91.70
1429;DHT22;708;51.442;7.016;2023-02-28T15:49:25;5.80;91.10
1429;DHT22;708;51.442;7.016;2023-02-28T15:51:56;5.90;91.20
1429;DHT22;708;51.442;7.016;2023-02-28T15:54:27;5.80;91.10
1429;DHT22;708;51.442;7.016;2023-02-28T15:56:57;5.80;91.40
1429;DHT22;708;51.442;7.016;2023-02-28T15:59:26;5.70;91.00
1429;DHT22;708;51.442;7.016;2023-02-28T16:02:13;5.80;91.20
1429;DHT22;708;51.442;7.016;2023-02-28T16:04:57;5.80;92.30
1429;DHT22;708;51.442;7.016;2023-02-28T16:07:25;5.80;92.30
1429;DHT22;708;51.442;7.016;2023-02-28T16:09:53;5.80;92.80
1429;DHT22;708;51.442;7.016;2023-02-28T16:12:20;5.80;99.10
1429;DHT22;708;51.442;7.016;2023-02-28T16:14:48;5.80;93.20
1429;DHT22;708;51.442;7.016;2023-02-28T16:17:20;5.80;93.50
1429;DHT22;708;51.442;7.016;2023-02-28T16:19:48;5.70;93.40
1429;DHT22;708;51.442;7.016;2023-02-28T16:22:15;5.70;93.70
1429;DHT22;708;51.442;7.016;2023-02-28T16:24:43;5.60;93.40
1429;DHT22;708;51.442;7.016;2023-02-28T16:27:17;5.60;94.20
1429;DHT22;708;51.442;7.016;2023-02-28T16:29:45;5.60;94.00
1429;DHT22;708;51.442;7.016;2023-02-28T16:32:13;5.60;94.40
1429;DHT22;708;51.442;7.016;2023-02-28T16:34:41;5.60;94.20
1429;DHT22;708;51.442;7.016;2023-02-28T16:37:12;5.50;95.00
1429;DHT22;708;51.442;7.016;2023-02-28T16:39:39;5.50;94.90
1429;DHT22;708;51.442;7.016;2023-02-28T16:42:10;5.50;94.30
1429;DHT22;708;51.442;7.016;2023-02-28T16:44:40;5.50;95.00
1429;DHT22;708;51.442;7.016;2023-02-28T16:47:09;5.50;95.50
1429;DHT22;708;51.442;7.016;2023-02-28T16:49:36;5.50;95.00
1429;DHT22;708;51.442;7.016;2023-02-28T16:52:03;5.40;94.70
1429;DHT22;708;51.442;7.016;2023-02-28T16:54:31;5.40;94.80
1429;DHT22;708;51.442;7.016;2023-02-28T16:56:58;5.30;94.90
1429;DHT22;708;51.442;7.016;2023-02-28T16:59:27;5.20;95.00
1429;DHT22;708;51.442;7.016;2023-02-28T17:01:55;5.20;95.80
1429;DHT22;708;51.442;7.016;2023-02-28T17:04:23;5.10;95.00
1429;DHT22;708;51.442;7.016;2023-02-28T17:06:50;5.10;95.20
1429;DHT22;708;51.442;7.016;2023-02-28T17:09:19;5.00;95.00
1429;DHT22;708;51.442;7.016;2023-02-28T17:11:46;5.00;95.50